createdAt,value
2018-01-24T00:00:07.023Z,17.80
2018-01-24T00:02:35.297Z,17.80
2018-01-24T00:05:03.591Z,17.80
2018-01-24T00:07:32.915Z,17.80
2018-01-24T00:10:01.874Z,17.80
2018-01-24T00:12:30.042Z,17.80
2018-01-24T00:14:58.213Z,17.80
2018-01-24T00:17:26.487Z,17.80
2018-01-24T00:19:55.034Z,17.80
2018-01-24T00:22:23.269Z,17.80
2018-01-24T00:24:51.506Z,17.80
2018-01-24T00:27:19.678Z,17.80
2018-01-24T00:29:47.914Z,17.80
2018-01-24T00:32:16.405Z,17.80
2018-01-24T00:34:44.558Z,17.80
2018-01-24T00:37:13.479Z,17.80
2018-01-24T00:39:42.033Z,17.80
2018-01-24T00:42:10.972Z,17.80
2018-01-24T00:44:39.159Z,17.80
2018-01-24T00:47:07.294Z,17.80
2018-01-24T00:49:35.434Z,17.80
2018-01-24T00:52:03.644Z,17.80
2018-01-24T00:54:31.791Z,17.80
2018-01-24T00:56:59.949Z,17.80
2018-01-24T00:59:28.908Z,17.80
2018-01-24T01:01:57.047Z,17.80
2018-01-24T01:04:25.197Z,17.80
2018-01-24T01:06:53.698Z,17.80
2018-01-24T01:09:21.853Z,17.80
2018-01-24T01:11:50.124Z,17.80
2018-01-24T01:14:19.071Z,17.80
2018-01-24T01:16:47.232Z,17.80
2018-01-24T01:19:15.418Z,17.80
2018-01-24T01:21:43.626Z,17.80
2018-01-24T01:24:11.763Z,17.80
2018-01-24T01:26:39.912Z,17.80
2018-01-24T01:29:08.064Z,17.80
2018-01-24T01:31:36.218Z,17.80
2018-01-24T01:34:05.138Z,17.80
2018-01-24T01:36:33.282Z,17.80
2018-01-24T01:39:01.462Z,17.80
2018-01-24T01:41:29.691Z,17.80
2018-01-24T01:43:57.944Z,17.80
2018-01-24T01:46:26.120Z,17.80
2018-01-24T01:48:54.564Z,17.80
2018-01-24T01:51:22.735Z,17.90
2018-01-24T01:53:51.687Z,17.80
2018-01-24T01:56:19.822Z,17.80
2018-01-24T01:58:48.000Z,17.80
2018-01-24T02:01:16.125Z,17.80
2018-01-24T02:03:45.042Z,17.80
2018-01-24T02:06:13.271Z,17.80
2018-01-24T02:08:41.464Z,17.80
2018-01-24T02:11:10.426Z,17.80
2018-01-24T02:13:38.579Z,17.80
2018-01-24T02:16:06.716Z,17.80
2018-01-24T02:18:34.872Z,17.80
2018-01-24T02:21:03.808Z,17.80
2018-01-24T02:23:32.754Z,17.80
2018-01-24T02:26:01.695Z,17.80
2018-01-24T02:28:29.892Z,17.80
2018-01-24T02:30:58.068Z,17.80
2018-01-24T02:33:26.230Z,17.80
2018-01-24T02:35:54.416Z,17.80
2018-01-24T02:41:32.008Z,17.80
2018-01-24T02:44:00.421Z,17.80
2018-01-24T02:46:29.379Z,17.80
2018-01-24T02:48:57.546Z,17.80
2018-01-24T02:51:25.702Z,17.80
2018-01-24T02:53:53.856Z,17.80
2018-01-24T02:56:22.017Z,17.80
2018-01-24T02:58:50.967Z,17.80
2018-01-24T03:01:19.150Z,17.80
2018-01-24T03:03:47.365Z,17.80
2018-01-24T03:06:15.529Z,17.80
2018-01-24T03:08:44.473Z,17.80
2018-01-24T03:11:12.810Z,17.80
2018-01-24T03:13:40.971Z,17.80
2018-01-24T03:16:09.169Z,17.80
2018-01-24T03:18:37.323Z,17.80
2018-01-24T03:21:05.499Z,17.80
2018-01-24T03:23:33.667Z,17.80
2018-01-24T03:26:01.862Z,17.80
2018-01-24T03:28:30.022Z,17.80
2018-01-24T03:30:58.219Z,17.80
2018-01-24T03:33:26.410Z,17.80
2018-01-24T03:35:54.588Z,17.80
2018-01-24T03:38:22.762Z,17.80
2018-01-24T03:40:50.971Z,17.80
2018-01-24T03:43:19.897Z,17.90
2018-01-24T03:45:48.074Z,17.90
2018-01-24T03:48:16.322Z,17.80
2018-01-24T03:50:44.528Z,17.80
2018-01-24T03:53:12.794Z,17.80
2018-01-24T03:55:41.280Z,17.80
2018-01-24T03:58:09.491Z,17.80
2018-01-24T04:00:37.684Z,17.80
2018-01-24T04:03:06.618Z,17.90
2018-01-24T04:05:34.785Z,17.80
2018-01-24T04:08:02.943Z,17.90
2018-01-24T04:10:31.095Z,17.90
2018-01-24T04:13:00.023Z,17.90
2018-01-24T04:15:29.006Z,17.90
2018-01-24T04:17:57.155Z,17.90
2018-01-24T04:20:25.325Z,17.90
2018-01-24T04:22:53.550Z,17.90
2018-01-24T04:25:21.837Z,17.90
2018-01-24T04:27:51.079Z,17.90
2018-01-24T04:30:19.247Z,17.90
2018-01-24T04:32:48.180Z,17.90
2018-01-24T04:35:16.390Z,17.90
2018-01-24T04:37:44.530Z,17.80
2018-01-24T04:40:12.687Z,17.80
2018-01-24T04:42:40.853Z,17.90
2018-01-24T04:45:09.015Z,17.80
2018-01-24T04:47:37.176Z,17.80
2018-01-24T04:50:05.332Z,17.90
2018-01-24T04:52:34.263Z,17.80
2018-01-24T04:55:02.467Z,17.80
2018-01-24T04:57:30.679Z,17.80
2018-01-24T04:59:59.591Z,18.00
2018-01-24T05:02:27.738Z,18.00
2018-01-24T05:04:56.727Z,18.10
2018-01-24T05:07:25.693Z,18.20
2018-01-24T05:09:53.846Z,18.20
2018-01-24T05:12:22.161Z,18.20
2018-01-24T05:14:50.424Z,18.30
2018-01-24T05:17:18.590Z,18.30
2018-01-24T05:19:46.770Z,18.30
2018-01-24T05:22:14.919Z,18.40
2018-01-24T05:24:43.086Z,18.40
2018-01-24T05:27:11.240Z,18.40
2018-01-24T05:29:39.403Z,18.40
2018-01-24T05:32:07.614Z,18.40
2018-01-24T05:34:35.774Z,18.40
2018-01-24T05:37:03.910Z,18.40
2018-01-24T05:39:32.398Z,18.40
2018-01-24T05:42:00.542Z,18.50
2018-01-24T05:44:28.677Z,18.50
2018-01-24T05:46:56.856Z,18.50
2018-01-24T05:49:25.043Z,18.50
2018-01-24T05:51:53.263Z,18.50
2018-01-24T05:54:21.435Z,18.50
2018-01-24T05:56:50.455Z,18.50
2018-01-24T05:59:18.719Z,18.50
2018-01-24T06:01:46.976Z,18.50
2018-01-24T06:04:15.132Z,18.60
2018-01-24T06:06:44.056Z,18.60
2018-01-24T06:09:12.265Z,18.60
2018-01-24T06:11:40.418Z,18.60
2018-01-24T06:14:08.623Z,18.60
2018-01-24T06:16:36.812Z,18.70
2018-01-24T06:19:05.734Z,18.80
2018-01-24T06:21:33.903Z,18.70
2018-01-24T06:24:02.061Z,18.80
2018-01-24T06:26:30.987Z,18.80
2018-01-24T06:28:59.240Z,18.80
2018-01-24T06:31:27.387Z,18.80
2018-01-24T06:33:56.353Z,18.90
2018-01-24T06:36:24.498Z,18.80
2018-01-24T06:38:52.665Z,18.90
2018-01-24T06:41:20.992Z,18.90
2018-01-24T06:43:49.152Z,18.80
2018-01-24T06:46:17.290Z,18.80
2018-01-24T06:48:45.501Z,18.80
2018-01-24T06:51:13.634Z,18.80
2018-01-24T06:53:41.777Z,18.80
2018-01-24T06:56:10.289Z,18.80
2018-01-24T06:58:38.452Z,18.80
2018-01-24T07:01:06.597Z,18.80
2018-01-24T07:03:35.527Z,18.80
2018-01-24T07:06:03.727Z,18.80
2018-01-24T07:08:31.935Z,18.80
2018-01-24T07:11:00.099Z,18.80
2018-01-24T07:16:38.987Z,18.80
2018-01-24T07:19:07.147Z,18.80
2018-01-24T07:21:35.327Z,18.80
2018-01-24T07:24:03.581Z,18.80
2018-01-24T07:26:31.726Z,18.80
2018-01-24T07:28:59.866Z,18.80
2018-01-24T07:31:28.017Z,18.80
2018-01-24T07:33:56.163Z,18.80
2018-01-24T07:36:25.128Z,18.80
2018-01-24T07:38:53.338Z,18.80
2018-01-24T07:41:21.498Z,18.80
2018-01-24T07:43:49.787Z,18.80
2018-01-24T07:46:17.975Z,18.80
2018-01-24T07:48:46.123Z,18.80
2018-01-24T07:51:14.308Z,18.80
2018-01-24T07:53:42.470Z,18.80
2018-01-24T07:56:10.663Z,18.80
2018-01-24T07:58:38.845Z,18.80
2018-01-24T08:01:06.993Z,18.80
2018-01-24T08:03:35.242Z,18.80
2018-01-24T08:06:03.427Z,18.80
2018-01-24T08:08:32.330Z,18.80
2018-01-24T08:11:01.243Z,18.80
2018-01-24T08:13:29.429Z,18.80
2018-01-24T08:15:58.342Z,18.90
2018-01-24T08:18:26.489Z,18.80
2018-01-24T08:20:54.702Z,18.90
2018-01-24T08:23:22.878Z,18.90
2018-01-24T08:25:51.061Z,18.90
2018-01-24T08:28:19.977Z,18.90
2018-01-24T08:30:48.126Z,18.80
2018-01-24T08:33:17.273Z,18.90
2018-01-24T08:35:45.446Z,18.80
2018-01-24T08:38:13.620Z,18.90
2018-01-24T08:40:41.783Z,18.80
2018-01-24T08:43:10.000Z,18.90
2018-01-24T08:45:38.142Z,18.90
2018-01-24T08:48:06.334Z,18.80
2018-01-24T08:50:34.570Z,18.80
2018-01-24T08:53:02.742Z,18.80
2018-01-24T08:55:30.915Z,18.80
2018-01-24T08:57:59.069Z,18.80
2018-01-24T09:00:27.237Z,18.80
2018-01-24T09:02:55.409Z,18.80
2018-01-24T09:05:24.366Z,18.90
2018-01-24T09:07:52.515Z,18.80
2018-01-24T09:10:20.718Z,18.90
2018-01-24T09:12:48.934Z,18.80
2018-01-24T09:15:17.512Z,18.90
2018-01-24T09:17:45.706Z,18.80
2018-01-24T09:20:13.864Z,18.80
2018-01-24T09:22:42.303Z,18.90
2018-01-24T09:25:11.249Z,18.90
2018-01-24T09:27:39.441Z,18.90
2018-01-24T09:30:07.714Z,18.90
2018-01-24T09:32:35.918Z,18.80
2018-01-24T09:35:04.168Z,18.90
2018-01-24T09:37:32.367Z,18.80
2018-01-24T09:40:00.572Z,18.90
2018-01-24T09:42:28.735Z,18.80
2018-01-24T09:44:57.041Z,18.90
2018-01-24T09:47:25.286Z,18.90
2018-01-24T09:49:54.264Z,18.80
2018-01-24T09:52:23.204Z,18.90
2018-01-24T09:54:51.390Z,18.80
2018-01-24T09:57:19.610Z,18.80
2018-01-24T09:59:48.548Z,18.90
2018-01-24T10:02:16.803Z,18.80
2018-01-24T10:04:44.972Z,18.90
2018-01-24T10:07:13.301Z,18.90
2018-01-24T10:09:41.506Z,18.90
2018-01-24T10:12:09.736Z,18.90
2018-01-24T10:14:37.889Z,18.90
2018-01-24T10:17:06.054Z,18.90
2018-01-24T10:19:34.301Z,18.90
2018-01-24T10:22:03.238Z,18.90
2018-01-24T10:24:31.417Z,18.90
2018-01-24T10:26:59.563Z,18.90
2018-01-24T10:29:27.775Z,18.90
2018-01-24T10:31:55.950Z,18.90
2018-01-24T10:34:24.137Z,18.90
2018-01-24T10:36:53.223Z,19.00
2018-01-24T10:39:21.454Z,18.90
2018-01-24T10:41:49.728Z,19.00
2018-01-24T10:44:17.882Z,19.00
2018-01-24T10:46:46.056Z,18.90
2018-01-24T10:49:14.262Z,19.00
2018-01-24T10:51:42.438Z,18.90
2018-01-24T10:54:10.628Z,18.90
2018-01-24T10:56:38.784Z,18.90
2018-01-24T10:59:07.733Z,18.90
2018-01-24T11:01:35.894Z,18.90
2018-01-24T11:04:04.921Z,18.90
2018-01-24T11:06:33.110Z,18.90
2018-01-24T11:09:02.023Z,18.90
2018-01-24T11:11:30.420Z,18.90
2018-01-24T11:13:58.590Z,18.90
2018-01-24T11:16:26.849Z,18.90
2018-01-24T11:18:55.001Z,18.90
2018-01-24T11:21:23.258Z,18.90
2018-01-24T11:23:51.578Z,18.90
2018-01-24T11:26:19.741Z,18.90
2018-01-24T11:28:47.993Z,18.90
2018-01-24T11:31:16.202Z,18.90
2018-01-24T11:33:44.455Z,18.90
2018-01-24T11:36:12.700Z,18.90
2018-01-24T11:38:40.840Z,18.90
2018-01-24T11:41:09.795Z,18.90
2018-01-24T11:43:38.750Z,18.90
2018-01-24T11:46:06.946Z,18.90
2018-01-24T11:48:35.945Z,18.90
2018-01-24T11:51:04.198Z,18.90
2018-01-24T11:53:32.482Z,18.90
2018-01-24T11:56:00.676Z,19.00
2018-01-24T11:58:28.885Z,18.90
2018-01-24T12:00:57.866Z,19.00
2018-01-24T12:03:26.079Z,18.90
2018-01-24T12:05:54.271Z,19.00
2018-01-24T12:08:22.425Z,19.00
2018-01-24T12:10:50.570Z,19.00
2018-01-24T12:13:19.578Z,18.90
2018-01-24T12:15:48.864Z,18.90
2018-01-24T12:18:17.775Z,18.90
2018-01-24T12:20:45.951Z,18.90
2018-01-24T12:23:14.184Z,18.90
2018-01-24T12:25:42.392Z,18.90
2018-01-24T12:28:10.649Z,18.90
2018-01-24T12:30:39.585Z,18.90
2018-01-24T12:33:07.794Z,18.90
2018-01-24T12:35:35.944Z,18.90
2018-01-24T12:38:04.099Z,18.90
2018-01-24T12:40:32.297Z,18.90
2018-01-24T12:43:00.540Z,18.90
2018-01-24T12:45:28.861Z,18.90
2018-01-24T12:47:57.031Z,18.90
2018-01-24T12:50:25.235Z,18.90
2018-01-24T12:52:54.199Z,19.00
2018-01-24T12:55:22.428Z,19.00
2018-01-24T12:57:50.581Z,19.00
2018-01-24T13:00:18.711Z,18.90
2018-01-24T13:02:46.893Z,18.90
2018-01-24T13:05:15.064Z,18.90
2018-01-24T13:07:43.210Z,18.90
2018-01-24T13:10:11.356Z,18.90
2018-01-24T13:12:39.621Z,18.90
2018-01-24T13:15:07.803Z,19.00
2018-01-24T13:17:36.078Z,19.00
2018-01-24T13:20:04.213Z,19.00
2018-01-24T13:22:32.381Z,19.00
2018-01-24T13:25:00.566Z,19.00
2018-01-24T13:27:29.967Z,18.90
2018-01-24T13:29:58.895Z,19.00
2018-01-24T13:32:27.038Z,18.90
2018-01-24T13:34:55.959Z,19.00
2018-01-24T13:37:24.731Z,19.00
2018-01-24T13:39:53.127Z,19.00
2018-01-24T13:42:21.296Z,18.90
2018-01-24T13:44:49.482Z,19.00
2018-01-24T13:47:17.670Z,19.00
2018-01-24T13:49:45.855Z,19.00
2018-01-24T13:52:14.067Z,19.00
2018-01-24T13:54:42.990Z,19.00
2018-01-24T13:57:11.254Z,18.90
2018-01-24T13:59:39.606Z,19.00
2018-01-24T14:02:08.650Z,19.00
2018-01-24T14:04:36.799Z,19.00
2018-01-24T14:07:04.979Z,19.00
2018-01-24T14:09:33.412Z,19.00
2018-01-24T14:12:02.401Z,19.00
2018-01-24T14:14:30.617Z,19.00
2018-01-24T14:16:58.759Z,19.00
2018-01-24T14:19:29.249Z,19.00
2018-01-24T14:21:57.529Z,19.00
2018-01-24T14:24:25.702Z,19.00
2018-01-24T14:26:53.857Z,19.00
2018-01-24T14:29:22.027Z,19.00
2018-01-24T14:31:50.182Z,19.00
2018-01-24T14:34:18.355Z,19.00
2018-01-24T14:36:46.516Z,19.00
2018-01-24T14:39:14.740Z,19.00
2018-01-24T14:44:17.970Z,19.00
2018-01-24T14:46:46.945Z,19.00
2018-01-24T14:49:15.099Z,19.00
2018-01-24T14:51:43.266Z,19.10
2018-01-24T14:54:11.424Z,19.10
2018-01-24T14:56:39.589Z,19.00
2018-01-24T14:59:07.756Z,19.00
2018-01-24T15:01:35.917Z,19.00
2018-01-24T15:04:04.076Z,19.00
2018-01-24T15:06:33.043Z,19.00
2018-01-24T15:09:01.205Z,19.00
2018-01-24T15:11:30.438Z,19.00
2018-01-24T15:13:59.517Z,19.10
2018-01-24T15:16:27.765Z,19.00
2018-01-24T15:18:55.978Z,19.10
2018-01-24T15:21:24.917Z,19.10
2018-01-24T15:23:53.105Z,19.10
2018-01-24T15:26:21.380Z,19.10
2018-01-24T15:28:49.541Z,19.10
2018-01-24T15:31:19.866Z,19.00
2018-01-24T15:33:48.029Z,19.10
2018-01-24T15:36:16.222Z,19.00
2018-01-24T15:38:45.390Z,19.10
2018-01-24T15:41:13.561Z,19.10
2018-01-24T15:43:41.763Z,19.10
2018-01-24T15:46:10.013Z,19.10
2018-01-24T15:48:38.176Z,19.10
2018-01-24T15:51:06.340Z,19.10
2018-01-24T15:53:34.607Z,19.10
2018-01-24T15:56:03.563Z,19.10
2018-01-24T15:58:31.730Z,19.10
2018-01-24T16:00:59.883Z,19.00
2018-01-24T16:03:28.144Z,19.10
2018-01-24T16:05:56.333Z,19.10
2018-01-24T16:08:24.614Z,19.10
2018-01-24T16:10:52.801Z,19.10
2018-01-24T16:13:21.123Z,19.10
2018-01-24T16:15:50.038Z,19.10
2018-01-24T16:18:18.328Z,19.10
2018-01-24T16:20:46.524Z,19.10
2018-01-24T16:23:14.766Z,19.10
2018-01-24T16:25:42.938Z,19.10
2018-01-24T16:28:11.083Z,19.10
2018-01-24T16:30:39.318Z,19.10
2018-01-24T16:33:07.731Z,19.10
2018-01-24T16:35:36.656Z,19.10
2018-01-24T16:38:04.841Z,19.10
2018-01-24T16:40:33.068Z,19.10
2018-01-24T16:43:01.988Z,19.10
2018-01-24T16:45:30.623Z,19.10
2018-01-24T16:47:58.821Z,19.10
2018-01-24T16:50:27.812Z,19.10
2018-01-24T16:52:55.999Z,19.10
2018-01-24T16:55:24.153Z,19.10
2018-01-24T16:57:53.065Z,19.10
2018-01-24T17:00:21.227Z,19.10
2018-01-24T17:02:49.367Z,19.10
2018-01-24T17:05:17.527Z,19.10
2018-01-24T17:07:45.664Z,19.10
2018-01-24T17:10:13.874Z,19.10
2018-01-24T17:12:42.030Z,19.10
2018-01-24T17:15:10.216Z,19.10
2018-01-24T17:17:38.366Z,19.10
2018-01-24T17:20:06.568Z,19.10
2018-01-24T17:22:34.713Z,19.10
2018-01-24T17:25:02.863Z,19.10
2018-01-24T17:27:31.119Z,19.10
2018-01-24T17:30:01.204Z,19.10
2018-01-24T17:32:30.284Z,19.10
2018-01-24T17:34:58.501Z,19.10
2018-01-24T17:37:27.530Z,19.10
2018-01-24T17:39:55.777Z,19.10
2018-01-24T17:42:23.932Z,19.10
2018-01-24T17:44:52.845Z,19.10
2018-01-24T17:47:20.995Z,19.10
2018-01-24T17:49:49.163Z,19.10
2018-01-24T17:52:18.167Z,19.10
2018-01-24T17:54:47.121Z,19.10
2018-01-24T17:57:15.396Z,19.10
2018-01-24T17:59:44.368Z,19.10
2018-01-24T18:02:12.563Z,19.10
2018-01-24T18:04:40.753Z,19.10
2018-01-24T18:07:08.886Z,19.10
2018-01-24T18:09:37.115Z,19.10
2018-01-24T18:12:06.106Z,19.10
2018-01-24T18:14:34.397Z,19.10
2018-01-24T18:17:02.597Z,19.10
2018-01-24T18:19:30.815Z,19.10
2018-01-24T18:21:59.054Z,19.10
2018-01-24T18:24:27.258Z,19.10
2018-01-24T18:26:55.568Z,19.10
2018-01-24T18:29:23.884Z,19.10
2018-01-24T18:31:52.058Z,19.10
2018-01-24T18:34:20.374Z,19.20
2018-01-24T18:36:48.670Z,19.10
2018-01-24T18:39:16.815Z,19.10
2018-01-24T18:41:44.987Z,19.20
2018-01-24T18:44:13.189Z,19.10
2018-01-24T18:46:41.358Z,19.20
2018-01-24T18:49:10.325Z,19.20
2018-01-24T18:51:39.255Z,19.10
2018-01-24T18:54:07.484Z,19.10
2018-01-24T18:56:35.649Z,19.10
2018-01-24T18:59:03.835Z,19.10
2018-01-24T19:01:32.031Z,19.10
2018-01-24T19:04:00.982Z,19.10
2018-01-24T19:06:30.677Z,19.20
2018-01-24T19:08:59.602Z,19.10
2018-01-24T19:11:27.847Z,19.10
2018-01-24T19:13:56.089Z,19.20
2018-01-24T19:16:24.266Z,19.20
2018-01-24T19:18:55.499Z,19.20
2018-01-24T19:21:23.773Z,19.20
2018-01-24T19:23:52.079Z,19.20
2018-01-24T19:26:20.276Z,19.20
2018-01-24T19:28:48.572Z,19.20
2018-01-24T19:31:16.916Z,19.20
2018-01-24T19:33:45.191Z,19.20
2018-01-24T19:36:13.469Z,19.20
2018-01-24T19:38:41.700Z,19.20
2018-01-24T19:41:09.955Z,19.20
2018-01-24T19:43:38.196Z,19.20
2018-01-24T19:46:06.356Z,19.20
2018-01-24T19:48:34.552Z,19.20
2018-01-24T19:51:02.852Z,19.20
2018-01-24T19:53:30.987Z,19.20
2018-01-24T19:55:59.197Z,19.20
2018-01-24T19:58:28.203Z,19.20
2018-01-24T20:00:57.138Z,19.30
2018-01-24T20:03:25.298Z,19.20
2018-01-24T20:05:53.508Z,19.20
2018-01-24T20:08:21.671Z,19.20
2018-01-24T20:10:49.877Z,19.20
2018-01-24T20:13:18.884Z,19.20
2018-01-24T20:15:47.123Z,19.20
2018-01-24T20:18:16.114Z,19.20
2018-01-24T20:20:47.131Z,19.20
2018-01-24T20:23:15.309Z,19.20
2018-01-24T20:25:43.483Z,19.20
2018-01-24T20:28:11.638Z,19.20
2018-01-24T20:30:39.884Z,19.20
2018-01-24T20:33:08.855Z,19.20
2018-01-24T20:35:37.772Z,19.20
2018-01-24T20:38:05.923Z,19.20
2018-01-24T20:40:34.150Z,19.20
2018-01-24T20:43:02.312Z,19.20
2018-01-24T20:45:30.482Z,19.20
2018-01-24T20:47:58.664Z,19.20
2018-01-24T20:50:26.823Z,19.20
2018-01-24T20:52:55.076Z,19.20
2018-01-24T20:55:23.292Z,19.20
2018-01-24T20:57:51.479Z,19.20
2018-01-24T21:00:19.659Z,19.20
2018-01-24T21:02:47.869Z,19.20
2018-01-24T21:05:16.020Z,19.20
2018-01-24T21:07:45.118Z,19.10
2018-01-24T21:10:14.139Z,19.10
2018-01-24T21:12:42.345Z,19.10
2018-01-24T21:15:10.510Z,19.00
2018-01-24T21:17:38.697Z,19.00
2018-01-24T21:20:06.900Z,18.90
2018-01-24T21:22:35.074Z,18.90
2018-01-24T21:25:04.022Z,18.80
2018-01-24T21:27:32.219Z,18.80
2018-01-24T21:30:18.180Z,18.80
2018-01-24T21:33:03.919Z,18.70
2018-01-24T21:35:50.728Z,18.60
2018-01-24T21:38:19.663Z,18.60
2018-01-24T21:40:47.896Z,18.60
2018-01-24T21:43:16.814Z,18.60
2018-01-24T21:45:44.969Z,18.50
2018-01-24T21:48:13.132Z,18.60
2018-01-24T21:50:42.117Z,18.60
2018-01-24T21:53:10.307Z,18.60
2018-01-24T21:55:38.477Z,18.50
2018-01-24T21:58:06.703Z,18.60
2018-01-24T22:00:34.871Z,18.50
2018-01-24T22:03:03.062Z,18.50
2018-01-24T22:05:31.278Z,18.50
2018-01-24T22:07:59.516Z,18.50
2018-01-24T22:10:27.733Z,18.50
2018-01-24T22:12:56.250Z,18.50
2018-01-24T22:15:24.456Z,18.50
2018-01-24T22:17:53.467Z,18.50
2018-01-24T22:20:21.681Z,18.50
2018-01-24T22:22:49.814Z,18.50
2018-01-24T22:25:19.017Z,18.40
2018-01-24T22:27:47.167Z,18.40
2018-01-24T22:30:16.140Z,18.40
2018-01-24T22:32:44.331Z,18.40
2018-01-24T22:35:13.240Z,18.30
2018-01-24T22:37:41.410Z,18.30
2018-01-24T22:40:09.606Z,18.30
2018-01-24T22:42:37.772Z,18.30
2018-01-24T22:45:06.046Z,18.30
2018-01-24T22:47:34.281Z,18.30
2018-01-24T22:50:02.462Z,18.40
2018-01-24T22:52:31.386Z,18.40
2018-01-24T22:54:59.530Z,18.30
2018-01-24T22:57:28.894Z,18.40
2018-01-24T22:59:57.154Z,18.30
2018-01-24T23:02:25.323Z,18.40
2018-01-24T23:04:53.472Z,18.40
2018-01-24T23:07:21.614Z,18.40
2018-01-24T23:09:50.680Z,18.40
2018-01-24T23:12:18.848Z,18.40
2018-01-24T23:14:47.029Z,18.40
2018-01-24T23:17:15.280Z,18.40
2018-01-24T23:19:43.463Z,18.40
2018-01-24T23:22:11.680Z,18.40
2018-01-24T23:24:39.920Z,18.50
2018-01-24T23:27:08.117Z,18.40
2018-01-24T23:29:37.783Z,18.40
2018-01-24T23:32:05.963Z,18.40
2018-01-24T23:34:34.156Z,18.40
2018-01-24T23:37:02.348Z,18.40
2018-01-24T23:39:30.589Z,18.40
2018-01-24T23:41:58.793Z,18.40
2018-01-24T23:44:26.966Z,18.40
2018-01-24T23:46:55.133Z,18.40
2018-01-24T23:49:23.335Z,18.40
2018-01-24T23:51:52.280Z,18.40
2018-01-24T23:54:21.217Z,18.40
2018-01-24T23:56:50.157Z,18.40
2018-01-24T23:59:18.360Z,18.40
